createdAt,value
2023-06-01T00:00:57.161Z,102556.88
2023-06-01T00:03:24.352Z,102556.88
2023-06-01T00:05:51.166Z,102554.28
2023-06-01T00:08:17.783Z,102557.97
2023-06-01T00:10:44.356Z,102561.69
2023-06-01T00:13:11.033Z,102550.88
2023-06-01T00:15:37.682Z,102556.28
2023-06-01T00:18:04.340Z,102558.25
2023-06-01T00:20:33.189Z,102559.25
2023-06-01T00:23:03.633Z,102555.69
2023-06-01T00:25:30.442Z,102548.59
2023-06-01T00:27:57.353Z,102554.09
2023-06-01T00:30:24.104Z,102551.56
2023-06-01T00:32:51.098Z,102561.50
2023-06-01T00:35:17.901Z,102557.09
2023-06-01T00:37:44.534Z,102562.50
2023-06-01T00:40:11.661Z,102558.06
2023-06-01T00:42:38.273Z,102559.91
2023-06-01T00:45:06.297Z,102553.66
2023-06-01T00:47:41.579Z,102560.03
2023-06-01T00:50:09.757Z,102549.22
2023-06-01T00:52:38.581Z,102561.03
2023-06-01T00:55:06.629Z,102553.03
2023-06-01T00:57:35.671Z,102554.03
2023-06-01T01:00:11.939Z,102547.78
2023-06-01T01:02:45.584Z,102552.44
2023-06-01T01:05:12.525Z,102551.50
2023-06-01T01:07:45.139Z,102551.50
2023-06-01T01:10:27.702Z,102555.28
2023-06-01T01:13:07.910Z,102555.28
2023-06-01T01:15:54.682Z,102551.75
2023-06-01T01:18:33.644Z,102549.91
2023-06-01T01:21:04.458Z,102545.34
2023-06-01T01:23:55.786Z,102549.91
2023-06-01T01:26:44.378Z,102549.03
2023-06-01T01:29:15.136Z,102541.06
2023-06-01T01:31:42.492Z,102544.75
2023-06-01T01:34:10.188Z,102542.22
2023-06-01T01:36:37.399Z,102542.22
2023-06-01T01:39:04.413Z,102543.19
2023-06-01T01:41:30.986Z,102545.88
2023-06-01T01:44:00.300Z,102546.88
2023-06-01T01:46:29.605Z,102548.00
2023-06-01T01:49:08.205Z,102549.81
2023-06-01T01:51:46.101Z,102546.28
2023-06-01T01:54:14.175Z,102544.44
2023-06-01T01:56:41.314Z,102548.13
2023-06-01T01:59:08.464Z,102536.47
2023-06-01T02:01:36.134Z,102542.03
2023-06-01T02:04:04.991Z,102543.72
2023-06-01T02:06:31.811Z,102533.94
2023-06-01T02:08:58.575Z,102532.19
2023-06-01T02:11:25.979Z,102535.91
2023-06-01T02:13:52.792Z,102530.38
2023-06-01T02:16:19.451Z,102525.97
2023-06-01T02:18:46.988Z,102531.34
2023-06-01T02:21:14.658Z,102526.09
2023-06-01T02:23:43.150Z,102527.94
2023-06-01T02:26:10.703Z,102522.66
2023-06-01T02:28:41.799Z,102512.78
2023-06-01T02:31:08.426Z,102519.97
2023-06-01T02:33:35.103Z,102524.50
2023-06-01T02:36:02.626Z,102526.38
2023-06-01T02:38:29.168Z,102528.22
2023-06-01T02:40:55.897Z,102529.22
2023-06-01T02:43:22.444Z,102528.34
2023-06-01T02:45:49.161Z,102526.63
2023-06-01T02:48:15.786Z,102524.81
2023-06-01T02:50:42.391Z,102524.06
2023-06-01T02:53:09.014Z,102525.91
2023-06-01T02:55:35.739Z,102525.91
2023-06-01T02:58:02.323Z,102523.22
2023-06-01T03:00:29.113Z,102521.50
2023-06-01T03:02:55.763Z,102518.81
2023-06-01T03:05:22.414Z,102522.38
2023-06-01T03:07:49.340Z,102524.22
2023-06-01T03:10:16.340Z,102510.72
2023-06-01T03:12:42.983Z,102510.84
2023-06-01T03:15:09.949Z,102520.78
2023-06-01T03:17:36.747Z,102514.53
2023-06-01T03:20:03.993Z,102515.38
2023-06-01T03:22:30.789Z,102511.84
2023-06-01T03:24:58.848Z,102519.94
2023-06-01T03:27:25.427Z,102517.38
2023-06-01T03:29:52.012Z,102519.34
2023-06-01T03:32:18.604Z,102521.78
2023-06-01T03:34:46.003Z,102519.41
2023-06-01T03:37:13.230Z,102519.59
2023-06-01T03:39:40.352Z,102527.00
2023-06-01T03:42:08.379Z,102517.38
2023-06-01T03:44:35.068Z,102525.97
2023-06-01T03:47:02.022Z,102522.16
2023-06-01T03:49:28.649Z,102526.28
2023-06-01T03:51:55.394Z,102534.97
2023-06-01T03:54:22.121Z,102529.31
2023-06-01T03:56:48.842Z,102532.72
2023-06-01T03:59:16.109Z,102526.19
2023-06-01T04:01:44.248Z,102519.81
2023-06-01T04:04:11.059Z,102529.47
2023-06-01T04:06:37.909Z,102528.50
2023-06-01T04:09:10.418Z,102529.34
2023-06-01T04:11:37.102Z,102524.78
2023-06-01T04:14:03.665Z,102520.13
2023-06-01T04:16:30.332Z,102521.81
2023-06-01T04:18:57.026Z,102525.38
2023-06-01T04:21:24.443Z,102523.69
2023-06-01T04:23:51.660Z,102523.69
2023-06-01T04:26:19.233Z,102526.22
2023-06-01T04:28:46.992Z,102523.41
2023-06-01T04:31:20.806Z,102525.97
2023-06-01T04:33:53.285Z,102522.25
2023-06-01T04:36:26.523Z,102521.31
2023-06-01T04:38:55.309Z,102522.16
2023-06-01T04:41:23.048Z,102520.16
2023-06-01T04:43:54.097Z,102527.28
2023-06-01T04:46:24.326Z,102521.88
2023-06-01T04:48:54.550Z,102522.84
2023-06-01T04:51:21.818Z,102529.09
2023-06-01T04:53:53.122Z,102526.41
2023-06-01T04:56:20.735Z,102534.50
2023-06-01T04:58:48.364Z,102538.94
2023-06-01T05:01:16.624Z,102537.06
2023-06-01T05:03:45.013Z,102537.94
2023-06-01T05:06:12.997Z,102532.53
2023-06-01T05:08:43.230Z,102528.97
2023-06-01T05:11:10.847Z,102527.13
2023-06-01T05:13:41.996Z,102533.38
2023-06-01T05:16:09.735Z,102526.97
2023-06-01T05:18:36.738Z,102527.97
2023-06-01T05:21:03.741Z,102532.38
2023-06-01T05:23:31.022Z,102535.06
2023-06-01T05:26:03.338Z,102532.38
2023-06-01T05:28:33.757Z,102532.25
2023-06-01T05:31:02.362Z,102531.41
2023-06-01T05:33:29.109Z,102533.97
2023-06-01T05:35:55.875Z,102533.97
2023-06-01T05:38:22.461Z,102539.34
2023-06-01T05:40:49.186Z,102545.59
2023-06-01T05:43:16.905Z,102541.06
2023-06-01T05:45:43.693Z,102540.22
2023-06-01T05:48:10.414Z,102542.75
2023-06-01T05:50:37.028Z,102529.25
2023-06-01T05:53:03.690Z,102537.34
2023-06-01T05:55:30.218Z,102533.81
2023-06-01T05:57:56.765Z,102542.75
2023-06-01T06:00:23.424Z,102534.66
2023-06-01T06:02:50.380Z,102544.50
2023-06-01T06:05:17.225Z,102542.75
2023-06-01T06:07:43.870Z,102533.81
2023-06-01T06:10:10.898Z,102536.66
2023-06-01T06:12:37.555Z,102531.41
2023-06-01T06:15:05.277Z,102533.38
2023-06-01T06:17:31.894Z,102539.03
2023-06-01T06:19:58.629Z,102533.94
2023-06-01T06:22:25.204Z,102535.75
2023-06-01T06:24:51.890Z,102536.91
2023-06-01T06:27:18.476Z,102533.34
2023-06-01T06:29:45.133Z,102540.72
2023-06-01T06:32:11.841Z,102534.72
2023-06-01T06:34:38.409Z,102535.72
2023-06-01T06:37:07.865Z,102532.44
2023-06-01T06:39:35.161Z,102535.41
2023-06-01T06:42:04.911Z,102540.09
2023-06-01T06:44:31.716Z,102547.47
2023-06-01T06:47:02.354Z,102541.22
2023-06-01T06:49:29.670Z,102548.59
2023-06-01T06:51:56.965Z,102552.25
2023-06-01T06:54:23.885Z,102550.44
2023-06-01T06:56:50.731Z,102551.41
2023-06-01T06:59:18.122Z,102546.00
2023-06-01T07:01:44.789Z,102562.19
2023-06-01T07:04:11.529Z,102547.88
2023-06-01T07:06:38.520Z,102560.50
2023-06-01T07:09:06.850Z,102556.94
2023-06-01T07:11:33.525Z,102556.94
2023-06-01T07:14:00.354Z,102555.09
2023-06-01T07:16:27.939Z,102555.84
2023-06-01T07:18:54.590Z,102550.44
2023-06-01T07:21:21.209Z,102560.25
2023-06-01T07:23:48.046Z,102546.59
2023-06-01T07:26:14.645Z,102554.59
2023-06-01T07:28:43.596Z,102547.34
2023-06-01T07:31:10.487Z,102553.44
2023-06-01T07:33:37.462Z,102548.78
2023-06-01T07:36:05.492Z,102552.19
2023-06-01T07:38:32.362Z,102557.47
2023-06-01T07:40:59.077Z,102565.41
2023-06-01T07:43:25.852Z,102556.31
2023-06-01T07:45:52.449Z,102557.06
2023-06-01T07:48:19.035Z,102566.84
2023-06-01T07:50:45.682Z,102565.00
2023-06-01T07:53:13.283Z,102565.72
2023-06-01T07:55:40.022Z,102566.59
2023-06-01T07:58:06.930Z,102561.03
2023-06-01T08:00:33.520Z,102560.94
2023-06-01T08:03:00.448Z,102554.53
2023-06-01T08:05:27.235Z,102558.78
2023-06-01T08:07:54.160Z,102553.28
2023-06-01T08:10:20.749Z,102545.03
2023-06-01T08:12:49.087Z,102546.59
2023-06-01T08:15:17.078Z,102539.22
2023-06-01T08:17:44.441Z,102546.19
2023-06-01T08:20:12.328Z,102542.50
2023-06-01T08:22:39.276Z,102546.78
2023-06-01T08:25:06.800Z,102543.94
2023-06-01T08:27:33.489Z,102536.56
2023-06-01T08:30:00.084Z,102529.16
2023-06-01T08:32:26.803Z,102538.00
2023-06-01T08:34:53.430Z,102529.75
2023-06-01T08:37:20.016Z,102526.03
2023-06-01T08:39:47.379Z,102533.03
2023-06-01T08:42:26.715Z,102535.72
2023-06-01T08:44:59.351Z,102536.44
2023-06-01T08:47:27.539Z,102538.00
2023-06-01T08:49:54.562Z,102533.44
2023-06-01T08:52:25.783Z,102526.94
2023-06-01T08:54:53.584Z,102538.59
2023-06-01T08:57:21.603Z,102538.44
2023-06-01T08:59:48.263Z,102539.31
2023-06-01T09:02:15.821Z,102533.91
2023-06-01T09:04:45.652Z,102536.47
2023-06-01T09:07:14.057Z,102535.47
2023-06-01T09:09:41.064Z,102539.00
2023-06-01T09:12:25.518Z,102534.63
2023-06-01T09:15:12.926Z,102534.47
2023-06-01T09:17:44.353Z,102530.78
2023-06-01T09:20:15.482Z,102524.38
2023-06-01T09:22:46.532Z,102524.38
2023-06-01T09:25:14.974Z,102533.34
2023-06-01T09:27:52.361Z,102526.94
2023-06-01T09:30:24.849Z,102523.28
2023-06-01T09:32:53.917Z,102521.31
2023-06-01T09:35:46.718Z,102509.66
2023-06-01T09:38:22.202Z,102502.25
2023-06-01T09:41:04.830Z,102511.06
2023-06-01T09:43:37.658Z,102504.41
2023-06-01T09:46:04.996Z,102503.38
2023-06-01T09:48:31.840Z,102502.25
2023-06-01T09:50:59.732Z,102517.47
2023-06-01T09:53:28.300Z,102508.38
2023-06-01T09:56:02.080Z,102505.53
2023-06-01T09:58:29.162Z,102505.38
2023-06-01T10:00:59.517Z,102507.09
2023-06-01T10:03:27.191Z,102507.81
2023-06-01T10:05:54.775Z,102500.41
2023-06-01T10:08:21.662Z,102505.53
2023-06-01T10:10:49.999Z,102504.53
2023-06-01T10:13:16.922Z,102515.22
2023-06-01T10:15:43.595Z,102514.94
2023-06-01T10:18:10.686Z,102506.84
2023-06-01T10:20:39.236Z,102520.19
2023-06-01T10:23:09.247Z,102510.06
2023-06-01T10:25:47.055Z,102510.81
2023-06-01T10:28:14.609Z,102516.91
2023-06-01T10:30:41.403Z,102507.66
2023-06-01T10:33:08.233Z,102513.78
2023-06-01T10:35:43.928Z,102517.06
2023-06-01T10:38:10.968Z,102509.50
2023-06-01T10:40:38.586Z,102506.50
2023-06-01T10:43:05.374Z,102512.66
2023-06-01T10:45:34.645Z,102512.50
2023-06-01T10:48:02.621Z,102505.78
2023-06-01T10:50:29.264Z,102506.53
2023-06-01T10:52:56.976Z,102510.94
2023-06-01T10:55:28.038Z,102502.53
2023-06-01T10:58:25.191Z,102497.97
2023-06-01T11:00:56.529Z,102495.69
2023-06-01T11:03:46.558Z,102500.94
2023-06-01T11:06:27.452Z,102487.13
2023-06-01T11:09:01.003Z,102488.84
2023-06-01T11:11:49.864Z,102494.97
2023-06-01T11:14:17.239Z,102494.53
2023-06-01T11:16:44.106Z,102492.69
2023-06-01T11:19:11.858Z,102495.09
2023-06-01T11:21:44.477Z,102497.53
2023-06-01T11:24:12.430Z,102482.84
2023-06-01T11:26:47.154Z,102483.56
2023-06-01T11:29:24.499Z,102480.69
2023-06-01T11:31:54.929Z,102482.25
2023-06-01T11:34:35.124Z,102485.66
2023-06-01T11:37:03.175Z,102486.38
2023-06-01T11:39:30.776Z,102490.66
2023-06-01T11:42:11.705Z,102492.47
2023-06-01T11:44:41.027Z,102478.81
2023-06-01T11:47:09.287Z,102484.22
2023-06-01T11:49:50.569Z,102488.63
2023-06-01T11:52:19.029Z,102476.81
2023-06-01T11:54:46.545Z,102484.06
2023-06-01T11:57:13.458Z,102478.66
2023-06-01T11:59:50.731Z,102478.66
2023-06-01T12:02:25.872Z,102481.38
2023-06-01T12:05:07.955Z,102489.63
2023-06-01T12:07:55.213Z,102488.78
2023-06-01T12:10:22.777Z,102483.38
2023-06-01T12:12:49.708Z,102484.34
2023-06-01T12:15:17.561Z,102485.25
2023-06-01T12:17:48.459Z,102493.47
2023-06-01T12:20:29.124Z,102494.50
2023-06-01T12:22:56.561Z,102489.78
2023-06-01T12:25:26.607Z,102493.66
2023-06-01T12:28:06.733Z,102488.22
2023-06-01T12:30:34.198Z,102485.53
2023-06-01T12:33:01.479Z,102493.66
2023-06-01T12:35:28.155Z,102489.22
2023-06-01T12:38:12.818Z,102487.50
2023-06-01T12:40:40.162Z,102492.78
2023-06-01T12:43:18.999Z,102487.50
2023-06-01T12:45:46.086Z,102491.91
2023-06-01T12:48:35.583Z,102497.47
2023-06-01T12:51:02.935Z,102493.78
2023-06-01T12:53:30.653Z,102493.66
2023-06-01T12:55:57.641Z,102488.34
2023-06-01T12:58:24.320Z,102489.38
2023-06-01T13:00:57.226Z,102493.94
2023-06-01T13:03:25.354Z,102486.81
2023-06-01T13:05:52.828Z,102488.34
2023-06-01T13:08:20.128Z,102484.13
2023-06-01T13:10:47.626Z,102486.81
2023-06-01T13:13:14.271Z,102485.97
2023-06-01T13:15:41.725Z,102482.38
2023-06-01T13:18:08.545Z,102488.81
2023-06-01T13:20:36.317Z,102486.09
2023-06-01T13:23:05.050Z,102483.41
2023-06-01T13:25:31.916Z,102476.28
2023-06-01T13:27:58.985Z,102472.56
2023-06-01T13:30:25.593Z,102484.25
2023-06-01T13:32:52.274Z,102471.56
2023-06-01T13:35:19.969Z,102469.03
2023-06-01T13:37:46.540Z,102479.00
2023-06-01T13:40:13.674Z,102482.56
2023-06-01T13:42:40.294Z,102472.56
2023-06-01T13:45:07.519Z,102474.44
2023-06-01T13:47:34.108Z,102474.44
2023-06-01T13:50:00.724Z,102464.47
2023-06-01T13:52:27.982Z,102464.47
2023-06-01T13:54:54.584Z,102468.19
2023-06-01T13:57:21.139Z,102462.75
2023-06-01T13:59:47.747Z,102462.75
2023-06-01T14:02:14.702Z,102459.22
2023-06-01T14:04:41.404Z,102456.50
2023-06-01T14:07:07.978Z,102457.34
2023-06-01T14:09:34.567Z,102457.34
2023-06-01T14:12:01.207Z,102456.50
2023-06-01T14:14:27.819Z,102458.38
2023-06-01T14:16:54.366Z,102455.66
2023-06-01T14:19:21.036Z,102452.97
2023-06-01T14:21:47.645Z,102452.97
2023-06-01T14:24:14.301Z,102455.78
2023-06-01T14:26:41.086Z,102453.25
2023-06-01T14:29:07.654Z,102452.41
2023-06-01T14:31:34.250Z,102454.38
2023-06-01T14:34:00.855Z,102445.41
2023-06-01T14:36:45.058Z,102449.81
2023-06-01T14:39:13.108Z,102442.72
2023-06-01T14:41:43.491Z,102446.28
2023-06-01T14:44:11.569Z,102444.56
2023-06-01T14:46:38.417Z,102441.88
2023-06-01T14:49:05.275Z,102441.88
2023-06-01T14:51:34.221Z,102441.03
2023-06-01T14:54:01.128Z,102441.03
2023-06-01T14:56:28.182Z,102431.22
2023-06-01T14:58:54.987Z,102428.50
2023-06-01T15:01:21.791Z,102427.78
2023-06-01T15:03:48.709Z,102425.94
2023-06-01T15:06:15.612Z,102427.78
2023-06-01T15:08:42.237Z,102418.81
2023-06-01T15:11:08.886Z,102421.53
2023-06-01T15:13:35.747Z,102411.72
2023-06-01T15:16:02.427Z,102412.56
2023-06-01T15:18:28.965Z,102410.88
2023-06-01T15:20:55.862Z,102409.16
2023-06-01T15:23:22.434Z,102408.28
2023-06-01T15:25:49.022Z,102402.03
2023-06-01T15:28:15.610Z,102405.59
2023-06-01T15:30:42.179Z,102402.03
2023-06-01T15:34:13.121Z,102401.19
2023-06-01T15:35:55.268Z,102396.63
2023-06-01T15:38:21.874Z,102394.94
2023-06-01T15:40:48.764Z,102401.19
2023-06-01T15:43:15.508Z,102412.00
2023-06-01T15:45:42.095Z,102404.06
2023-06-01T15:48:08.757Z,102411.16
2023-06-01T15:50:40.053Z,102404.91
2023-06-01T15:53:07.218Z,102400.50
2023-06-01T15:55:33.803Z,102404.06
2023-06-01T15:58:00.473Z,102405.91
2023-06-01T16:00:28.831Z,102404.19
2023-06-01T16:02:55.544Z,102397.91
2023-06-01T16:05:22.268Z,102405.31
2023-06-01T16:07:48.864Z,102399.91
2023-06-01T16:10:16.128Z,102404.59
2023-06-01T16:12:42.761Z,102395.81
2023-06-01T16:15:09.621Z,102389.50
2023-06-01T16:17:36.316Z,102396.09
2023-06-01T16:20:03.342Z,102392.66
2023-06-01T16:22:29.919Z,102393.69
2023-06-01T16:24:56.499Z,102385.00
2023-06-01T16:27:23.072Z,102387.88
2023-06-01T16:29:49.728Z,102383.47
2023-06-01T16:32:16.380Z,102376.50
2023-06-01T16:34:42.972Z,102372.09
2023-06-01T16:37:09.530Z,102377.63
2023-06-01T16:39:36.259Z,102379.63
2023-06-01T16:42:02.932Z,102375.25
2023-06-01T16:44:29.490Z,102376.38
2023-06-01T16:46:56.073Z,102381.94
2023-06-01T16:49:22.680Z,102379.53
2023-06-01T16:51:49.902Z,102377.94
2023-06-01T16:54:16.539Z,102381.78
2023-06-01T16:56:43.084Z,102379.25
2023-06-01T16:59:09.678Z,102372.28
2023-06-01T17:01:36.944Z,102370.56
2023-06-01T17:04:03.713Z,102378.00
2023-06-01T17:06:32.031Z,102374.56
2023-06-01T17:08:59.209Z,102375.72
2023-06-01T17:11:28.380Z,102374.84
2023-06-01T17:13:55.081Z,102378.72
2023-06-01T17:16:21.772Z,102370.03
2023-06-01T17:18:48.538Z,102371.03
2023-06-01T17:21:15.786Z,102369.47
2023-06-01T17:23:43.552Z,102371.47
2023-06-01T17:26:10.165Z,102364.50
2023-06-01T17:28:37.659Z,102367.38
2023-06-01T17:31:04.552Z,102367.66
2023-06-01T17:33:31.466Z,102361.53
2023-06-01T17:35:58.131Z,102366.22
2023-06-01T17:38:25.536Z,102362.81
2023-06-01T17:40:52.617Z,102371.03
2023-06-01T17:43:19.175Z,102369.34
2023-06-01T17:45:45.981Z,102360.34
2023-06-01T17:48:12.728Z,102362.38
2023-06-01T17:50:39.514Z,102356.13
2023-06-01T17:53:08.138Z,102358.09
2023-06-01T17:55:37.402Z,102362.66
2023-06-01T17:58:04.015Z,102371.75
2023-06-01T18:00:32.646Z,102370.91
2023-06-01T18:02:59.272Z,102357.13
2023-06-01T18:05:25.912Z,102365.63
2023-06-01T18:07:52.508Z,102367.09
2023-06-01T18:10:19.477Z,102362.09
2023-06-01T18:12:46.250Z,102365.50
2023-06-01T18:15:12.968Z,102366.09
2023-06-01T18:17:39.658Z,102368.47
2023-06-01T18:20:06.757Z,102359.25
2023-06-01T18:22:33.388Z,102359.06
2023-06-01T18:24:59.992Z,102355.25
2023-06-01T18:27:26.799Z,102355.81
2023-06-01T18:29:53.627Z,102353.81
2023-06-01T18:32:20.220Z,102361.63
2023-06-01T18:34:46.772Z,102360.50
2023-06-01T18:37:13.380Z,102360.16
2023-06-01T18:39:39.992Z,102369.84
2023-06-01T18:42:06.899Z,102367.88
2023-06-01T18:44:33.530Z,102360.59
2023-06-01T18:47:00.280Z,102365.72
2023-06-01T18:49:27.022Z,102355.59
2023-06-01T18:51:56.404Z,102360.00
2023-06-01T18:54:23.118Z,102347.22
2023-06-01T18:56:49.780Z,102358.72
2023-06-01T18:59:16.585Z,102352.31
2023-06-01T19:01:43.474Z,102349.47
2023-06-01T19:04:10.132Z,102343.03
2023-06-01T19:06:37.480Z,102343.91
2023-06-01T19:09:04.285Z,102348.31
2023-06-01T19:11:31.245Z,102349.19
2023-06-01T19:13:57.836Z,102345.47
2023-06-01T19:16:31.617Z,102346.47
2023-06-01T19:19:01.000Z,102341.75
2023-06-01T19:21:31.791Z,102345.31
2023-06-01T19:23:59.449Z,102341.63
2023-06-01T19:26:29.531Z,102353.28
2023-06-01T19:29:01.676Z,102357.53
2023-06-01T19:31:35.544Z,102352.13
2023-06-01T19:34:04.192Z,102347.56
2023-06-01T19:36:42.588Z,102351.97
2023-06-01T19:39:36.331Z,102337.63
2023-06-01T19:42:09.493Z,102348.13
2023-06-01T19:44:36.638Z,102349.84
2023-06-01T19:47:04.639Z,102347.13
2023-06-01T19:49:41.751Z,102347.25
2023-06-01T19:52:10.936Z,102353.41
2023-06-01T19:54:39.892Z,102357.06
2023-06-01T19:57:07.496Z,102360.78
2023-06-01T19:59:34.658Z,102358.38
2023-06-01T20:02:02.943Z,102363.09
2023-06-01T20:04:34.018Z,102363.25
2023-06-01T20:07:01.293Z,102366.25
2023-06-01T20:09:27.997Z,102368.22
2023-06-01T20:11:58.547Z,102373.94
2023-06-01T20:14:33.429Z,102374.22
2023-06-01T20:17:03.053Z,102379.75
2023-06-01T20:19:30.416Z,102371.13
2023-06-01T20:21:59.410Z,102374.97
2023-06-01T20:24:30.970Z,102369.00
2023-06-01T20:27:05.272Z,102366.56
2023-06-01T20:29:33.951Z,102368.59
2023-06-01T20:32:02.106Z,102370.56
2023-06-01T20:34:31.429Z,102365.44
2023-06-01T20:36:58.301Z,102368.47
2023-06-01T20:39:25.343Z,102364.03
2023-06-01T20:41:56.058Z,102364.34
2023-06-01T20:44:23.710Z,102371.75
2023-06-01T20:46:52.277Z,102358.50
2023-06-01T20:49:24.858Z,102359.69
2023-06-01T20:51:51.543Z,102358.09
2023-06-01T20:54:22.931Z,102355.56
2023-06-01T20:56:54.143Z,102359.38
2023-06-01T20:59:28.641Z,102362.38
2023-06-01T21:02:00.962Z,102351.72
2023-06-01T21:04:30.263Z,102360.97
2023-06-01T21:06:57.116Z,102360.22
2023-06-01T21:09:24.287Z,102361.25
2023-06-01T21:11:53.224Z,102349.03
2023-06-01T21:14:20.509Z,102364.50
2023-06-01T21:16:47.952Z,102348.56
2023-06-01T21:19:14.723Z,102359.53
2023-06-01T21:21:41.441Z,102358.81
2023-06-01T21:24:08.952Z,102358.97
2023-06-01T21:26:36.823Z,102353.00
2023-06-01T21:29:04.111Z,102365.63
2023-06-01T21:31:30.848Z,102368.63
2023-06-01T21:33:57.526Z,102372.59
2023-06-01T21:36:24.131Z,102373.59
2023-06-01T21:38:50.864Z,102380.97
2023-06-01T21:41:18.443Z,102368.47
2023-06-01T21:43:45.108Z,102378.56
2023-06-01T21:46:11.729Z,102385.94
2023-06-01T21:48:38.395Z,102379.84
2023-06-01T21:51:05.208Z,102381.81
2023-06-01T21:53:31.862Z,102382.81
2023-06-01T21:55:59.395Z,102387.50
2023-06-01T21:58:26.741Z,102384.09
2023-06-01T22:00:54.151Z,102385.09
2023-06-01T22:03:22.474Z,102379.13
2023-06-01T22:05:50.211Z,102375.59
2023-06-01T22:08:17.293Z,102381.09
2023-06-01T22:10:44.058Z,102373.16
2023-06-01T22:13:10.793Z,102382.25
2023-06-01T22:15:37.497Z,102383.22
2023-06-01T22:18:06.289Z,102377.97
2023-06-01T22:20:32.995Z,102380.66
2023-06-01T22:22:59.585Z,102368.19
2023-06-01T22:25:26.166Z,102370.16
2023-06-01T22:27:52.787Z,102370.31
2023-06-01T22:30:19.543Z,102363.22
2023-06-01T22:32:46.237Z,102366.03
2023-06-01T22:35:12.988Z,102364.31
2023-06-01T22:37:39.592Z,102369.72
2023-06-01T22:40:07.109Z,102370.72
2023-06-01T22:42:34.918Z,102370.84
2023-06-01T22:45:02.324Z,102371.69
2023-06-01T22:47:29.085Z,102373.69
2023-06-01T22:49:57.793Z,102373.69
2023-06-01T22:52:28.555Z,102374.53
2023-06-01T22:54:56.255Z,102376.53
2023-06-01T22:57:23.491Z,102384.63
2023-06-01T22:59:50.517Z,102371.28
2023-06-01T23:02:19.764Z,102375.81
2023-06-01T23:04:46.484Z,102386.59
2023-06-01T23:07:14.398Z,102380.50
2023-06-01T23:09:42.233Z,102380.50
2023-06-01T23:12:12.781Z,102375.13
2023-06-01T23:14:41.991Z,102375.22
2023-06-01T23:17:12.432Z,102382.31
2023-06-01T23:19:41.890Z,102371.69
2023-06-01T23:22:09.637Z,102373.53
2023-06-01T23:24:36.320Z,102374.38
2023-06-01T23:27:03.135Z,102370.00
2023-06-01T23:29:30.039Z,102376.38
2023-06-01T23:31:56.875Z,102373.69
2023-06-01T23:34:24.034Z,102378.19
2023-06-01T23:36:54.168Z,102383.75
2023-06-01T23:39:22.436Z,102389.13
2023-06-01T23:41:49.755Z,102380.91
2023-06-01T23:44:17.565Z,102383.31
2023-06-01T23:46:46.133Z,102382.91
2023-06-01T23:49:13.920Z,102383.22
2023-06-01T23:51:41.168Z,102378.97
2023-06-01T23:54:07.925Z,102383.94
2023-06-01T23:56:34.683Z,102383.53
2023-06-01T23:59:01.633Z,102377.84
